AirNav   Everest Fuels
 
 687 users online  

MO20 Nevada Regional Medical Center Heliport
Nevada, Missouri, USA

GOING TO NEVADA?


FAA INFORMATION EFFECTIVE 21 MAY 2020

Location

FAA Identifier: MO20
Lat/Long: 37-49-54.8600N 094-21-38.0100W
37-49.914333N 094-21.633500W
37.8319056,-94.3605583
(estimated)
Elevation: 856 ft. / 261 m (estimated)
Variation: 04E (2000)
From city: 1 mile S of NEVADA, MO
Time zone: UTC -5 (UTC -6 during Standard Time)
Zip code: 72753

Heliport Operations

Heliport use: Private use, MEDICAL USE.
Activation date: 12/2000
Control tower: no
ARTCC: KANSAS CITY CENTER
FSS: COLUMBIA FLIGHT SERVICE STATION
Attendance: UNATNDD
Wind indicator: yes
Segmented circle: no

Heliport Communications

WX AWOS-3 at NVD (2.9 nm NE): 119.175 (417-448-1635)
WX AWOS-3 at FSK (19 nm W): 124.425 (620-223-0655)

Nearby radio navigation aids

VOR radial/distance  VOR name  Freq  Var
BUMr160/27.1BUTLER VORTAC115.9007E

Heliport Services

Runway Information

Helipad H1

Dimensions: 40 x 40 ft. / 12 x 12 m
Surface: concrete
Runway edge lights: PERI
Latitude: 37-49.914333N
Longitude: 094-21.633500W
Elevation: 856.0 ft.
Traffic pattern: leftleft

Heliport Ownership and Management from official FAA records

Ownership: Privately-owned
Owner: NEVADA REGIONAL MEDICAL CENTER
800 SOUTH ASH
NEVADA, MO 64772
Phone 417-667-3355
Manager: KEVIN LEEPER
800 SOUTH ASH
NEVADA, MO 64772
Phone 417-667-3355
EXT 101

Additional Remarks

A52-H1 25 FT PLINES 65 FT WEST; 10 FT BLDG 81 FT SOUTH; & 35 FT TREES 8 FT NORTHWEST OF HELIPAD.
OWNER DESIRES HELIPORT NOT BE CHARTED.
FOR CD CTC KANSAS CITY ARTCC AT 913-254-8508.

Instrument Procedures

There are no published instrument procedures at MO20.

Some nearby airports with instrument procedures:

KNVD - Nevada Municipal Airport (3 nm NE)
KFSK - Fort Scott Municipal Airport (19 nm W)
KLLU - Lamar Municipal Airport (21 nm S)
KBUM - Butler Memorial Airport (27 nm N)
MO3 - Stockton Municipal Airport (28 nm E)
 
Loc | Ops | Rwys | IFR | FBO | Links
Com | Nav | Svcs | Stats | Notes
Area around MO20 (Nevada Regional Medical Center Heliport)
 
Road maps at: MapQuest Bing Google
 
Aerial photo
No photo
 
Sectional chart

 
Airport distance calculator
Flying to Nevada Regional Medical Center Heliport? Find the distance to fly.

From to MO20

Sunrise and sunset
Times for 29-May-2020
 Local
(UTC-5)
 Zulu
(UTC)
Morning civil twilight05:2810:28
Sunrise05:5910:59
Sunset20:3101:31
Evening civil twilight21:0202:02

Current date and time
Zulu (UTC)  30-May-2020 03:54:19
Local (UTC-5)  29-May-2020 22:54:19
 
METAR
KPTS 
29nm SW 
300335Z AUTO 00000KT 10SM CLR 16/15 A3018 RMK AO2 T01580151
KJLN 
41nm S 
300253Z AUTO 00000KT 10SM CLR 17/12 A3018 RMK AO2 SLP214 T01720122 51009
KLRY 
47nm N 
300335Z AUTO 00000KT 10SM CLR 15/12 A3020 RMK AO2
KK88 
49nm W 
300335Z AUTO 00000KT 10SM CLR 17/14 A3020 RMK AO1 T01720144
TAF
KJLN 
41nm S 
291720Z 2918/3018 04006KT P6SM SKC FM300200 VRB03KT P6SM SKC FM301400 10005KT P6SM FEW150
NOTAMs
Click for the latest NOTAMs
NOTAMs are issued by the DoD/FAA and will open in a separate window not controlled by AirNav.

 

 
 

Would you like to see your business listed on this page?

 If your business provides an interesting product or service to pilots, flight crews, aircraft, or users of the Nevada Regional Medical Center Heliport, you should consider listing it here.  To start the listing process, click on the button below
 
Add a business
 

Other Pages about Nevada Regional Medical Center Heliport

Update a link
 
Copyright © AirNav, LLC. All rights reserved. Privacy Policy  Contact